Time;durP1;ratioP1;P1;durP2;ratioP2;P2;SDS_P1;SDS_P2;PMS_P1;PMS_P2;Temp;Humidity;BMP_temperature;BMP_pressure;BME280_temperature;BME280_humidity;BME280_pressure;Samples;Min_cycle;Max_cycle;Signal;HPM_P1;HPM_P2
2021/10/07 00:00:33;;;;;;;;;;;20.90;65.60;;;;;;5031220;28;1308;-70
2021/10/07 00:02:58;;;;;;;;;;;20.90;65.60;;;;;;5031008;28;1406;-70
2021/10/07 00:05:24;;;;;;;;;;;20.90;66.40;;;;;;5032363;28;1060;-70
2021/10/07 00:07:49;;;;;;;;;;;20.90;65.60;;;;;;5032523;28;1292;-70
2021/10/07 00:10:15;;;;;;;;;;;20.90;65.70;;;;;;5047744;28;1303;-70
2021/10/07 00:12:40;;;;;;;;;;;20.90;65.70;;;;;;5032367;28;1270;-70
2021/10/07 00:15:06;;;;;;;;;;;20.90;65.70;;;;;;5032339;28;1080;-70
2021/10/07 00:17:32;;;;;;;;;;;20.90;65.80;;;;;;5031982;28;1044;-71
2021/10/07 00:19:57;;;;;;;;;;;20.90;65.80;;;;;;5032395;28;1890;-70
2021/10/07 00:22:22;;;;;;;;;;;20.90;65.80;;;;;;5035851;28;1266;-70
2021/10/07 00:24:48;;;;;;;;;;;20.90;65.80;;;;;;5035845;28;1487;-70
2021/10/07 00:27:13;;;;;;;;;;;20.80;65.80;;;;;;5035733;28;1348;-70
2021/10/07 00:32:09;;;;;;;;;;;20.80;65.90;;;;;;5035436;28;1320;-71
2021/10/07 00:39:31;;;;;;;;;;;20.80;65.90;;;;;;5035810;28;1894;-70
2021/10/07 00:41:57;;;;;;;;;;;20.80;66.00;;;;;;5035097;28;1365;-70
2021/10/07 00:44:22;;;;;;;;;;;20.80;66.00;;;;;;5035602;28;1297;-71
2021/10/07 00:46:58;;;;;;;;;;;20.80;66.00;;;;;;5029885;28;1075;-70
2021/10/07 00:49:23;;;;;;;;;;;20.80;66.00;;;;;;5034310;28;1056;-70
2021/10/07 00:51:49;;;;;;;;;;;20.80;66.00;;;;;;5035056;28;1364;-70
2021/10/07 00:54:15;;;;;;;;;;;20.80;66.10;;;;;;5035268;28;1075;-70
2021/10/07 00:56:41;;;;;;;;;;;20.80;66.10;;;;;;5034145;28;1272;-71
2021/10/07 00:59:06;;;;;;;;;;;20.80;66.10;;;;;;5034043;28;1965;-70
2021/10/07 01:01:32;;;;;;;;;;;20.80;66.10;;;;;;5034720;28;1373;-70
2021/10/07 01:03:57;;;;;;;;;;;20.80;66.20;;;;;;5035129;28;1337;-71
2021/10/07 01:06:23;;;;;;;;;;;20.80;66.20;;;;;;5035268;28;1202;-70
2021/10/07 01:08:48;;;;;;;;;;;20.80;66.20;;;;;;5033903;28;1510;-70
2021/10/07 01:11:14;;;;;;;;;;;20.80;66.20;;;;;;5016824;28;1484;-70
2021/10/07 01:13:39;;;;;;;;;;;20.80;66.30;;;;;;5035118;28;1388;-70
2021/10/07 01:16:05;;;;;;;;;;;20.80;66.30;;;;;;5033512;28;1382;-70
2021/10/07 01:18:30;;;;;;;;;;;20.80;66.30;;;;;;5034860;28;1910;-70
2021/10/07 01:20:56;;;;;;;;;;;20.80;66.30;;;;;;5033280;28;1280;-70
2021/10/07 01:23:21;;;;;;;;;;;20.80;66.30;;;;;;5034854;28;1278;-70
2021/10/07 01:25:46;;;;;;;;;;;20.80;66.30;;;;;;5033490;28;1071;-70
2021/10/07 01:28:12;;;;;;;;;;;20.70;66.30;;;;;;5034633;28;1189;-71
2021/10/07 01:30:37;;;;;;;;;;;20.80;66.40;;;;;;5034254;28;1349;-70
2021/10/07 01:33:03;;;;;;;;;;;20.80;66.40;;;;;;5015898;28;1258;-71
2021/10/07 01:35:28;;;;;;;;;;;20.70;66.30;;;;;;5016887;28;1340;-70
2021/10/07 01:37:54;;;;;;;;;;;20.70;66.40;;;;;;5034743;28;1271;-70
2021/10/07 01:40:20;;;;;;;;;;;20.70;66.40;;;;;;5032856;28;1902;-70
2021/10/07 01:42:45;;;;;;;;;;;20.80;66.40;;;;;;5050005;28;1284;-70
2021/10/07 01:45:11;;;;;;;;;;;20.80;66.50;;;;;;5034077;28;1355;-70
2021/10/07 01:47:36;;;;;;;;;;;20.80;66.50;;;;;;5033072;28;1162;-70
2021/10/07 01:50:02;;;;;;;;;;;20.70;66.40;;;;;;5049498;28;1345;-70
2021/10/07 01:52:28;;;;;;;;;;;20.70;66.50;;;;;;5034372;28;1176;-70
2021/10/07 01:54:53;;;;;;;;;;;20.70;66.50;;;;;;5032876;28;1134;-70
2021/10/07 01:57:19;;;;;;;;;;;20.70;66.50;;;;;;5034104;28;1086;-70
2021/10/07 01:59:44;;;;;;;;;;;20.70;66.50;;;;;;5032611;28;1969;-70
2021/10/07 02:02:10;;;;;;;;;;;20.70;66.50;;;;;;5033678;28;1212;-70
2021/10/07 02:04:35;;;;;;;;;;;20.70;66.60;;;;;;5034015;28;1352;-70
2021/10/07 02:07:00;;;;;;;;;;;20.70;66.60;;;;;;5034111;28;1071;-70
2021/10/07 02:09:26;;;;;;;;;;;20.70;66.60;;;;;;5033853;28;1122;-70
2021/10/07 02:11:51;;;;;;;;;;;20.70;66.70;;;;;;5032363;28;1399;-71
2021/10/07 02:14:17;;;;;;;;;;;20.70;66.60;;;;;;5032433;28;1094;-70
2021/10/07 02:16:42;;;;;;;;;;;20.70;66.70;;;;;;5015982;28;1442;-70
2021/10/07 02:19:08;;;;;;;;;;;20.70;66.70;;;;;;5033643;28;1906;-70
2021/10/07 02:21:33;;;;;;;;;;;20.70;66.70;;;;;;5033332;28;1350;-70
2021/10/07 02:23:58;;;;;;;;;;;20.70;66.70;;;;;;5033593;28;1067;-70
2021/10/07 02:26:24;;;;;;;;;;;20.70;66.70;;;;;;5032374;28;1150;-70
2021/10/07 02:28:49;;;;;;;;;;;20.70;66.70;;;;;;5032560;28;1064;-70
2021/10/07 02:31:15;;;;;;;;;;;20.70;66.70;;;;;;5033102;28;1271;-70
2021/10/07 02:33:40;;;;;;;;;;;20.70;66.80;;;;;;5033540;28;1071;-71
2021/10/07 02:36:06;;;;;;;;;;;20.70;66.80;;;;;;5033502;28;1388;-70
2021/10/07 02:38:31;;;;;;;;;;;20.70;66.80;;;;;;5048706;28;1906;-70
2021/10/07 02:40:57;;;;;;;;;;;20.70;66.80;;;;;;5032890;28;1320;-70
2021/10/07 02:43:22;;;;;;;;;;;20.70;66.90;;;;;;5033160;28;1127;-70
2021/10/07 02:45:48;;;;;;;;;;;20.70;66.80;;;;;;5033134;28;1433;-70
2021/10/07 02:48:13;;;;;;;;;;;20.70;66.80;;;;;;5042866;28;1031;-70
2021/10/07 02:50:39;;;;;;;;;;;20.70;66.90;;;;;;5032862;28;1382;-70
2021/10/07 02:53:04;;;;;;;;;;;20.70;66.90;;;;;;5033434;28;1339;-70
2021/10/07 02:55:30;;;;;;;;;;;20.70;66.90;;;;;;5032998;28;1283;-70
2021/10/07 02:57:55;;;;;;;;;;;20.70;66.90;;;;;;5033479;28;1313;-70
2021/10/07 03:00:20;;;;;;;;;;;20.70;66.90;;;;;;5031197;28;1906;-70
2021/10/07 03:02:46;;;;;;;;;;;20.70;66.90;;;;;;5033043;28;1380;-71
2021/10/07 03:05:13;;;;;;;;;;;20.70;67.00;;;;;;5031729;28;1396;-70
2021/10/07 03:07:39;;;;;;;;;;;20.70;66.90;;;;;;5031848;28;1083;-70
2021/10/07 03:10:04;;;;;;;;;;;20.60;66.90;;;;;;5032600;28;1150;-70
2021/10/07 03:12:30;;;;;;;;;;;20.70;67.00;;;;;;5032877;28;1409;-70
2021/10/07 03:14:55;;;;;;;;;;;20.70;67.00;;;;;;5032582;28;1078;-70
2021/10/07 03:17:21;;;;;;;;;;;20.60;66.90;;;;;;5031660;28;1150;-70
2021/10/07 03:19:46;;;;;;;;;;;20.70;67.00;;;;;;5032636;28;1902;-71
2021/10/07 03:22:13;;;;;;;;;;;20.70;67.00;;;;;;5032642;28;1313;-70
2021/10/07 03:24:38;;;;;;;;;;;20.60;67.00;;;;;;5031597;28;1327;-71
2021/10/07 03:27:04;;;;;;;;;;;20.60;67.00;;;;;;5027799;28;1400;-70
2021/10/07 03:29:30;;;;;;;;;;;20.60;67.00;;;;;;5031708;28;1299;-71
2021/10/07 03:31:55;;;;;;;;;;;20.70;67.10;;;;;;5031211;28;1319;-70
2021/10/07 03:34:20;;;;;;;;;;;20.70;67.10;;;;;;5032608;28;1423;-71
2021/10/07 03:36:46;;;;;;;;;;;20.70;67.10;;;;;;5031538;28;1362;-70
2021/10/07 03:39:11;;;;;;;;;;;20.70;67.10;;;;;;5032366;28;1962;-70
2021/10/07 03:41:37;;;;;;;;;;;20.70;67.10;;;;;;5032303;28;1388;-70
2021/10/07 03:44:02;;;;;;;;;;;20.60;67.10;;;;;;5032379;28;1107;-70
2021/10/07 03:46:28;;;;;;;;;;;20.60;67.10;;;;;;5028981;28;1083;-70
2021/10/07 03:48:53;;;;;;;;;;;20.60;67.10;;;;;;5031034;28;1531;-71
2021/10/07 03:51:19;;;;;;;;;;;20.60;67.10;;;;;;5032248;28;1387;-70
2021/10/07 03:53:44;;;;;;;;;;;20.60;67.10;;;;;;5032752;28;1397;-70
2021/10/07 03:56:09;;;;;;;;;;;20.60;67.10;;;;;;5033985;28;1163;-70
2021/10/07 03:58:35;;;;;;;;;;;20.60;67.10;;;;;;5035983;28;1898;-70
2021/10/07 04:01:00;;;;;;;;;;;20.60;67.10;;;;;;5036459;28;1371;-70
2021/10/07 04:03:26;;;;;;;;;;;20.60;67.10;;;;;;5035011;28;1343;-70
2021/10/07 04:05:51;;;;;;;;;;;20.60;67.20;;;;;;5036372;28;1343;-70
2021/10/07 04:08:17;;;;;;;;;;;20.60;67.20;;;;;;5036075;28;1310;-70
2021/10/07 04:10:42;;;;;;;;;;;20.60;67.20;;;;;;5035891;28;1282;-71
2021/10/07 04:13:08;;;;;;;;;;;20.60;67.20;;;;;;5034746;28;1104;-70
2021/10/07 04:15:33;;;;;;;;;;;20.60;67.30;;;;;;5036028;28;1244;-70
2021/10/07 04:17:59;;;;;;;;;;;20.60;67.30;;;;;;5036063;28;1371;-70
2021/10/07 04:20:24;;;;;;;;;;;20.60;67.20;;;;;;5034516;28;1965;-69
2021/10/07 04:22:50;;;;;;;;;;;20.60;67.20;;;;;;5035945;28;1048;-70
2021/10/07 04:25:15;;;;;;;;;;;20.60;67.30;;;;;;5035834;28;1189;-70
2021/10/07 04:27:41;;;;;;;;;;;20.60;67.30;;;;;;5034754;28;1190;-70
2021/10/07 04:30:06;;;;;;;;;;;20.60;67.30;;;;;;5035592;28;1138;-70
2021/10/07 04:32:32;;;;;;;;;;;20.60;67.30;;;;;;5034680;28;1268;-70
2021/10/07 04:34:57;;;;;;;;;;;20.60;67.30;;;;;;5035740;28;1099;-70
2021/10/07 04:37:23;;;;;;;;;;;20.60;67.30;;;;;;5034354;28;1084;-70
2021/10/07 04:39:48;;;;;;;;;;;20.60;67.30;;;;;;5035391;28;1957;-71
2021/10/07 04:42:14;;;;;;;;;;;20.60;67.30;;;;;;5057702;22;3782;-69
2021/10/07 04:44:39;;;;;;;;;;;20.60;67.20;;;;;;5054891;28;1209;-69
2021/10/07 04:47:05;;;;;;;;;;;20.70;67.30;;;;;;5055178;28;1393;-69
2021/10/07 04:49:30;;;;;;;;;;;20.60;67.10;;;;;;5055449;28;1162;-69
2021/10/07 04:51:56;;;;;;;;;;;20.70;67.10;;;;;;5053028;28;1261;-69
2021/10/07 04:54:21;;;;;;;;;;;20.70;67.00;;;;;;5055199;28;1265;-70
2021/10/07 04:56:46;;;;;;;;;;;20.70;66.90;;;;;;5054670;28;1071;-69
2021/10/07 04:59:12;;;;;;;;;;;20.80;66.90;;;;;;5054802;28;1983;-69
2021/10/07 05:01:37;;;;;;;;;;;20.80;66.80;;;;;;5054795;28;1353;-69
2021/10/07 05:04:03;;;;;;;;;;;20.80;66.70;;;;;;5055342;28;1436;-69
2021/10/07 05:06:29;;;;;;;;;;;20.80;66.70;;;;;;5054440;28;1328;-69
2021/10/07 05:08:55;;;;;;;;;;;20.90;66.60;;;;;;5052915;28;1071;-69
2021/10/07 05:11:20;;;;;;;;;;;20.90;66.50;;;;;;5054142;28;1338;-69
2021/10/07 05:13:46;;;;;;;;;;;20.90;66.40;;;;;;5054261;28;1529;-69
2021/10/07 05:16:11;;;;;;;;;;;20.90;66.30;;;;;;5054886;28;1043;-69
2021/10/07 05:18:37;;;;;;;;;;;20.90;66.30;;;;;;5052760;28;1939;-69
2021/10/07 05:21:02;;;;;;;;;;;21.00;66.30;;;;;;5053916;28;1330;-69
2021/10/07 05:23:29;;;;;;;;;;;21.00;66.30;;;;;;5054514;28;1286;-69
2021/10/07 05:25:55;;;;;;;;;;;21.00;66.20;;;;;;5054013;28;1137;-69
2021/10/07 05:28:20;;;;;;;;;;;21.00;66.20;;;;;;5039779;28;1098;-69
2021/10/07 05:30:46;;;;;;;;;;;21.00;66.10;;;;;;5034079;28;1335;-69
2021/10/07 05:33:11;;;;;;;;;;;21.00;66.10;;;;;;5034141;28;1039;-69
2021/10/07 05:35:37;;;;;;;;;;;21.00;66.00;;;;;;5032396;28;1268;-69
2021/10/07 05:38:02;;;;;;;;;;;21.00;66.00;;;;;;5034273;28;1111;-69
2021/10/07 05:40:27;;;;;;;;;;;21.00;66.00;;;;;;5032590;28;1894;-69
2021/10/07 05:42:53;;;;;;;;;;;21.00;66.00;;;;;;5033406;28;1211;-69
2021/10/07 05:45:18;;;;;;;;;;;21.00;65.90;;;;;;5032879;28;1314;-69
2021/10/07 05:47:44;;;;;;;;;;;21.00;65.90;;;;;;5036036;28;1165;-69
2021/10/07 05:50:10;;;;;;;;;;;21.00;65.80;;;;;;5053262;28;1233;-69
2021/10/07 05:52:36;;;;;;;;;;;21.10;65.90;;;;;;5051763;28;1220;-69
2021/10/07 05:55:01;;;;;;;;;;;21.10;65.80;;;;;;5053690;28;1075;-69
2021/10/07 05:57:27;;;;;;;;;;;21.10;65.80;;;;;;5053635;28;1293;-69
2021/10/07 05:59:52;;;;;;;;;;;21.10;65.80;;;;;;5053184;28;1964;-68
2021/10/07 06:02:18;;;;;;;;;;;21.10;65.10;;;;;;5053235;28;1227;-68
2021/10/07 06:04:43;;;;;;;;;;;21.10;63.70;;;;;;5052001;28;1297;-68
2021/10/07 06:07:09;;;;;;;;;;;21.10;63.00;;;;;;5052379;28;1059;-68
2021/10/07 06:09:34;;;;;;;;;;;21.10;63.60;;;;;;5053530;28;1210;-68
2021/10/07 06:11:59;;;;;;;;;;;21.10;63.30;;;;;;5052444;28;1296;-68
2021/10/07 06:14:25;;;;;;;;;;;21.10;63.10;;;;;;5051970;28;1289;-68
2021/10/07 06:16:53;;;;;;;;;;;21.10;62.10;;;;;;5053843;28;1319;-67
2021/10/07 06:19:19;;;;;;;;;;;21.10;61.70;;;;;;5051411;28;1902;-68
2021/10/07 06:21:44;;;;;;;;;;;21.10;61.50;;;;;;5028256;28;2279;-68
2021/10/07 06:24:09;;;;;;;;;;;21.10;61.20;;;;;;5024195;28;2307;-69
2021/10/07 06:26:35;;;;;;;;;;;21.10;60.90;;;;;;5031329;28;1061;-69
2021/10/07 06:29:00;;;;;;;;;;;21.10;60.40;;;;;;5029303;28;1142;-67
2021/10/07 06:31:26;;;;;;;;;;;21.10;60.00;;;;;;5031764;28;1360;-68
2021/10/07 06:33:51;;;;;;;;;;;21.10;60.00;;;;;;5032001;28;1250;-68
2021/10/07 06:36:17;;;;;;;;;;;21.10;59.80;;;;;;5031930;28;1274;-67
2021/10/07 06:38:42;;;;;;;;;;;21.10;59.60;;;;;;5031799;28;1899;-71
2021/10/07 06:41:07;;;;;;;;;;;21.10;59.40;;;;;;5030742;28;1277;-68
2021/10/07 06:43:33;;;;;;;;;;;21.10;59.20;;;;;;5033119;28;1335;-68
2021/10/07 06:45:58;;;;;;;;;;;21.10;59.10;;;;;;5032507;28;1287;-68
2021/10/07 06:48:24;;;;;;;;;;;21.10;58.80;;;;;;5040572;28;1203;-68
2021/10/07 06:50:49;;;;;;;;;;;21.00;58.70;;;;;;5052294;28;1406;-68
2021/10/07 06:53:15;;;;;;;;;;;21.00;58.70;;;;;;5052582;28;1293;-68
2021/10/07 06:55:40;;;;;;;;;;;21.00;58.60;;;;;;5051235;28;1333;-68
2021/10/07 06:58:08;;;;;;;;;;;21.00;58.60;;;;;;5051415;28;1169;-69
2021/10/07 07:00:34;;;;;;;;;;;21.00;58.50;;;;;;5051953;28;1910;-68
2021/10/07 07:02:59;;;;;;;;;;;21.00;58.40;;;;;;5052330;28;1226;-70
2021/10/07 07:05:25;;;;;;;;;;;21.00;56.90;;;;;;5052514;28;1330;-70
2021/10/07 07:07:51;;;;;;;;;;;21.00;57.30;;;;;;5051306;28;1271;-70
2021/10/07 07:10:19;;;;;;;;;;;21.00;57.40;;;;;;5050328;28;1280;-70
2021/10/07 07:12:48;;;;;;;;;;;21.10;58.20;;;;;;5052243;28;1463;-70
2021/10/07 07:15:14;;;;;;;;;;;21.10;57.80;;;;;;5051347;28;1266;-70
2021/10/07 07:17:39;;;;;;;;;;;21.20;57.90;;;;;;5052010;28;1351;-70
2021/10/07 07:20:05;;;;;;;;;;;21.20;57.90;;;;;;5050491;28;1910;-71
2021/10/07 07:22:30;;;;;;;;;;;21.30;57.80;;;;;;5052219;28;1291;-70
2021/10/07 07:24:56;;;;;;;;;;;21.40;57.80;;;;;;5051872;28;1268;-70
2021/10/07 07:27:21;;;;;;;;;;;21.50;57.70;;;;;;5046007;28;1311;-69
2021/10/07 07:29:47;;;;;;;;;;;21.50;57.60;;;;;;5032497;28;1318;-70
2021/10/07 07:32:12;;;;;;;;;;;21.60;57.50;;;;;;5035954;28;1320;-70
2021/10/07 07:34:38;;;;;;;;;;;21.70;57.40;;;;;;5032141;28;1219;-69
2021/10/07 07:37:03;;;;;;;;;;;21.80;57.40;;;;;;5009716;28;1336;-70
2021/10/07 07:39:29;;;;;;;;;;;21.80;57.60;;;;;;5033930;28;1926;-70
2021/10/07 07:41:54;;;;;;;;;;;21.90;57.60;;;;;;5027300;28;1428;-70
2021/10/07 07:44:19;;;;;;;;;;;21.90;57.70;;;;;;5029933;28;1128;-70
2021/10/07 07:46:45;;;;;;;;;;;22.00;58.00;;;;;;5032655;28;1409;-70
2021/10/07 07:49:10;;;;;;;;;;;22.00;58.00;;;;;;5036465;28;1662;-70
2021/10/07 07:51:36;;;;;;;;;;;22.00;58.20;;;;;;5035577;28;1658;-70
2021/10/07 07:54:01;;;;;;;;;;;22.00;58.20;;;;;;5036251;28;1677;-70
2021/10/07 07:56:27;;;;;;;;;;;22.10;58.30;;;;;;5035681;28;1579;-70
2021/10/07 07:58:53;;;;;;;;;;;22.10;58.50;;;;;;5036284;28;1965;-70
2021/10/07 08:01:19;;;;;;;;;;;22.10;58.60;;;;;;5035324;28;1655;-70
2021/10/07 08:03:44;;;;;;;;;;;22.10;58.70;;;;;;5036182;28;1652;-71
2021/10/07 08:06:10;;;;;;;;;;;22.10;58.80;;;;;;5036150;28;1408;-71
2021/10/07 08:08:35;;;;;;;;;;;22.10;59.00;;;;;;5036315;28;1374;-71
2021/10/07 08:11:00;;;;;;;;;;;22.10;59.20;;;;;;5035915;28;1557;-70
2021/10/07 08:13:26;;;;;;;;;;;22.10;59.30;;;;;;5036177;28;1795;-70
2021/10/07 08:15:51;;;;;;;;;;;22.10;59.90;;;;;;5036117;28;1150;-70
2021/10/07 08:18:17;;;;;;;;;;;22.10;59.40;;;;;;5051516;28;1953;-70
2021/10/07 08:20:43;;;;;;;;;;;22.10;59.50;;;;;;5034795;28;1356;-70
2021/10/07 08:23:12;;;;;;;;;;;22.10;59.60;;;;;;5036056;28;1191;-70
2021/10/07 08:25:37;;;;;;;;;;;22.10;59.70;;;;;;5035861;28;1274;-69
2021/10/07 08:28:03;;;;;;;;;;;22.10;59.80;;;;;;5036803;28;1527;-70
2021/10/07 08:30:28;;;;;;;;;;;22.10;59.80;;;;;;5054249;28;1245;-69
2021/10/07 08:32:54;;;;;;;;;;;22.10;59.90;;;;;;5055175;28;1298;-70
2021/10/07 08:35:19;;;;;;;;;;;22.10;60.30;;;;;;5054808;28;1378;-70
2021/10/07 08:37:46;;;;;;;;;;;22.00;60.30;;;;;;5054824;28;1149;-70
2021/10/07 08:40:11;;;;;;;;;;;22.00;60.50;;;;;;5040183;28;1975;-70
2021/10/07 08:42:37;;;;;;;;;;;22.00;60.60;;;;;;5034411;28;1320;-70
2021/10/07 08:45:03;;;;;;;;;;;22.00;60.80;;;;;;5027844;28;2191;-70
2021/10/07 08:47:28;;;;;;;;;;;22.00;60.80;;;;;;5033782;28;2471;-70
2021/10/07 08:49:57;;;;;;;;;;;22.00;61.00;;;;;;5035487;28;1530;-70
2021/10/07 08:52:23;;;;;;;;;;;22.00;61.10;;;;;;5039558;28;1643;-70
2021/10/07 08:54:49;;;;;;;;;;;22.00;61.20;;;;;;5035100;28;1329;-71
2021/10/07 08:57:14;;;;;;;;;;;21.90;61.30;;;;;;5033737;28;1400;-70
2021/10/07 08:59:40;;;;;;;;;;;21.90;61.40;;;;;;5030714;28;1965;-69
2021/10/07 09:02:07;;;;;;;;;;;21.90;61.50;;;;;;5029784;28;1882;-69
2021/10/07 09:04:36;;;;;;;;;;;21.90;61.60;;;;;;5035235;28;1384;-69
2021/10/07 09:07:09;;;;;;;;;;;21.90;61.70;;;;;;5041056;28;1625;-69
2021/10/07 09:09:38;;;;;;;;;;;21.90;61.80;;;;;;5048999;28;1623;-69
2021/10/07 09:12:04;;;;;;;;;;;21.90;61.90;;;;;;5020922;28;1407;-70
2021/10/07 09:14:30;;;;;;;;;;;21.90;62.00;;;;;;5049387;28;1378;-70
2021/10/07 09:16:56;;;;;;;;;;;21.90;62.10;;;;;;5034281;28;1592;-69
2021/10/07 09:19:24;;;;;;;;;;;21.80;62.20;;;;;;5049228;28;1965;-70
2021/10/07 09:21:51;;;;;;;;;;;21.80;62.30;;;;;;5033152;28;1611;-70
2021/10/07 09:24:27;;;;;;;;;;;21.80;62.40;;;;;;5034313;28;1409;-70
2021/10/07 09:26:52;;;;;;;;;;;21.80;62.50;;;;;;5031257;28;1303;-70
2021/10/07 09:29:23;;;;;;;;;;;21.80;62.60;;;;;;5045048;28;1392;-70
2021/10/07 09:31:48;;;;;;;;;;;21.80;62.70;;;;;;5039068;28;1267;-70
2021/10/07 09:34:14;;;;;;;;;;;21.80;62.80;;;;;;5048912;28;1753;-70
2021/10/07 09:36:40;;;;;;;;;;;21.80;63.00;;;;;;5033753;28;1623;-70
2021/10/07 09:39:07;;;;;;;;;;;21.80;63.10;;;;;;5033536;28;1963;-69
2021/10/07 09:41:33;;;;;;;;;;;21.80;63.30;;;;;;5032750;28;1675;-69
2021/10/07 09:44:03;;;;;;;;;;;21.80;63.40;;;;;;5048422;28;1289;-69
2021/10/07 09:46:37;;;;;;;;;;;21.70;63.40;;;;;;5029618;28;1358;-69
2021/10/07 09:49:02;;;;;;;;;;;21.80;63.50;;;;;;5052353;28;1565;-69
2021/10/07 09:51:35;;;;;;;;;;;21.80;63.60;;;;;;5052479;28;1648;-69
2021/10/07 09:54:02;;;;;;;;;;;21.70;63.60;;;;;;5038919;28;1291;-69
2021/10/07 09:56:30;;;;;;;;;;;21.70;63.70;;;;;;5046914;28;1650;-69
2021/10/07 09:58:55;;;;;;;;;;;21.70;63.70;;;;;;5041562;28;1901;-69
2021/10/07 10:01:21;;;;;;;;;;;21.70;63.80;;;;;;5031181;28;1354;-69
2021/10/07 10:03:46;;;;;;;;;;;21.70;64.00;;;;;;5044089;28;1282;-70
2021/10/07 10:06:12;;;;;;;;;;;21.70;64.10;;;;;;5032813;28;1613;-69
2021/10/07 10:08:37;;;;;;;;;;;21.70;64.10;;;;;;5051919;28;1518;-70
2021/10/07 10:11:03;;;;;;;;;;;21.70;64.20;;;;;;5051951;28;1368;-70
2021/10/07 10:13:28;;;;;;;;;;;21.70;64.30;;;;;;5051311;28;1625;-70
2021/10/07 10:15:54;;;;;;;;;;;21.70;64.40;;;;;;5052332;28;1391;-69
2021/10/07 10:18:19;;;;;;;;;;;21.70;64.40;;;;;;5050836;28;1725;-70
2021/10/07 10:20:48;;;;;;;;;;;21.70;64.50;;;;;;5050205;28;1392;-70
2021/10/07 10:23:14;;;;;;;;;;;21.70;64.70;;;;;;5050774;28;1709;-70
2021/10/07 10:25:52;;;;;;;;;;;21.70;64.80;;;;;;5053300;28;1175;-69
2021/10/07 10:28:27;;;;;;;;;;;21.70;64.80;;;;;;5024360;28;2591;-69
2021/10/07 10:30:53;;;;;;;;;;;21.70;64.90;;;;;;5029061;28;1588;-69
2021/10/07 10:33:27;;;;;;;;;;;21.70;65.00;;;;;;5031052;28;1647;-69
2021/10/07 10:35:52;;;;;;;;;;;21.70;65.00;;;;;;5023811;28;1247;-69
2021/10/07 10:38:17;;;;;;;;;;;21.70;65.10;;;;;;5042124;28;1573;-69
2021/10/07 10:40:43;;;;;;;;;;;21.60;65.80;;;;;;5028248;28;2268;-70
2021/10/07 10:43:17;;;;;;;;;;;21.70;65.20;;;;;;5039341;28;1036;-71
2021/10/07 10:45:44;;;;;;;;;;;21.70;65.20;;;;;;5019127;28;1371;-71
2021/10/07 10:48:10;;;;;;;;;;;21.70;65.30;;;;;;5035597;28;1405;-71
2021/10/07 10:50:35;;;;;;;;;;;21.70;65.30;;;;;;5028998;28;2294;-73
2021/10/07 10:53:02;;;;;;;;;;;21.60;65.30;;;;;;5026951;28;1307;-73
2021/10/07 10:55:28;;;;;;;;;;;21.70;65.40;;;;;;5034964;28;1336;-72
2021/10/07 10:58:01;;;;;;;;;;;21.60;65.40;;;;;;5048218;28;1275;-73
2021/10/07 11:00:28;;;;;;;;;;;21.60;65.50;;;;;;5031604;28;1914;-73
2021/10/07 11:03:06;;;;;;;;;;;21.60;65.60;;;;;;5035492;28;1754;-71
2021/10/07 11:05:31;;;;;;;;;;;21.60;65.60;;;;;;5018227;28;1277;-70
2021/10/07 11:08:09;;;;;;;;;;;21.60;65.70;;;;;;5046772;28;1310;-70
2021/10/07 11:10:44;;;;;;;;;;;21.60;65.80;;;;;;5031093;28;1352;-68
2021/10/07 11:13:14;;;;;;;;;;;21.60;65.90;;;;;;5031525;28;1395;-69
2021/10/07 11:15:39;;;;;;;;;;;21.60;66.00;;;;;;5046637;28;1263;-67
2021/10/07 11:18:05;;;;;;;;;;;21.60;66.10;;;;;;5031261;28;1282;-70
2021/10/07 11:20:30;;;;;;;;;;;21.50;66.10;;;;;;5031928;28;1969;-69
2021/10/07 11:23:03;;;;;;;;;;;21.60;66.20;;;;;;5032202;28;1375;-70
2021/10/07 11:25:29;;;;;;;;;;;21.60;66.20;;;;;;5047293;28;1127;-68
2021/10/07 11:27:54;;;;;;;;;;;21.50;66.20;;;;;;5042689;28;1356;-69
2021/10/07 11:30:21;;;;;;;;;;;21.50;66.30;;;;;;5029590;28;1298;-69
2021/10/07 11:32:47;;;;;;;;;;;21.50;66.30;;;;;;5047694;28;1584;-70
2021/10/07 11:35:12;;;;;;;;;;;21.60;66.40;;;;;;5032258;28;1644;-69
2021/10/07 11:37:44;;;;;;;;;;;21.60;66.40;;;;;;5032236;28;1679;-68
2021/10/07 11:40:28;;;;;;;;;;;21.60;66.40;;;;;;5031588;28;1973;-70
2021/10/07 11:42:57;;;;;;;;;;;21.60;66.40;;;;;;5032690;28;1529;-69
2021/10/07 11:45:23;;;;;;;;;;;21.60;66.40;;;;;;5032369;28;1637;-69
2021/10/07 11:47:50;;;;;;;;;;;21.60;66.50;;;;;;5025692;28;1982;-69
2021/10/07 11:50:15;;;;;;;;;;;21.50;66.40;;;;;;5029737;28;1390;-68
2021/10/07 11:52:41;;;;;;;;;;;21.60;66.50;;;;;;5024041;28;1526;-69
2021/10/07 11:55:06;;;;;;;;;;;21.60;66.50;;;;;;5024632;28;1662;-69
2021/10/07 11:57:32;;;;;;;;;;;21.50;66.50;;;;;;5027741;28;2228;-71
2021/10/07 11:59:58;;;;;;;;;;;21.60;66.60;;;;;;5032360;28;1902;-72
2021/10/07 12:02:23;;;;;;;;;;;21.60;66.60;;;;;;5033691;28;1386;-70
2021/10/07 12:04:49;;;;;;;;;;;21.60;67.00;;;;;;5035146;28;1284;-70
2021/10/07 12:07:17;;;;;;;;;;;21.60;66.30;;;;;;5021278;28;1349;-71
2021/10/07 12:09:43;;;;;;;;;;;21.50;65.40;;;;;;5033605;28;1296;-70
2021/10/07 12:12:08;;;;;;;;;;;21.50;64.20;;;;;;5026722;28;1303;-71
2021/10/07 12:14:34;;;;;;;;;;;21.50;64.30;;;;;;5036226;28;1196;-71
2021/10/07 12:16:59;;;;;;;;;;;21.50;63.90;;;;;;5052507;28;1264;-70
2021/10/07 12:19:27;;;;;;;;;;;21.40;63.50;;;;;;5053963;28;1906;-70
2021/10/07 12:22:03;;;;;;;;;;;21.40;62.50;;;;;;5053782;28;1344;-70
2021/10/07 12:24:30;;;;;;;;;;;21.40;62.40;;;;;;5033768;28;2104;-70
2021/10/07 12:26:56;;;;;;;;;;;21.40;62.30;;;;;;5023419;28;1122;-71
2021/10/07 12:29:26;;;;;;;;;;;21.30;62.70;;;;;;5037985;28;1295;-70
2021/10/07 12:32:05;;;;;;;;;;;21.30;61.80;;;;;;5027920;28;1394;-70
2021/10/07 12:34:33;;;;;;;;;;;21.30;61.50;;;;;;5029476;28;1176;-68
2021/10/07 12:36:59;;;;;;;;;;;21.30;61.40;;;;;;5022503;28;1280;-71
2021/10/07 12:39:32;;;;;;;;;;;21.30;61.10;;;;;;5034221;28;1952;-71
2021/10/07 12:41:58;;;;;;;;;;;21.30;61.30;;;;;;5032747;28;1275;-70
2021/10/07 12:44:24;;;;;;;;;;;21.20;60.90;;;;;;5042852;28;1294;-70
2021/10/07 12:46:51;;;;;;;;;;;21.20;60.00;;;;;;5047879;28;1250;-70
2021/10/07 12:49:16;;;;;;;;;;;21.20;60.30;;;;;;5050487;28;1333;-70
2021/10/07 12:51:47;;;;;;;;;;;21.20;60.20;;;;;;5034231;28;1362;-71
2021/10/07 12:54:14;;;;;;;;;;;21.20;60.50;;;;;;5034740;28;1340;-71
2021/10/07 12:56:40;;;;;;;;;;;21.20;60.60;;;;;;5034730;28;1305;-70
2021/10/07 12:59:09;;;;;;;;;;;21.20;60.50;;;;;;5050100;28;1910;-70
2021/10/07 13:01:38;;;;;;;;;;;21.20;60.50;;;;;;5049307;28;1305;-70
2021/10/07 13:04:13;;;;;;;;;;;21.10;60.40;;;;;;5049932;28;1351;-70
2021/10/07 13:06:39;;;;;;;;;;;21.10;60.10;;;;;;5049710;28;1067;-70
2021/10/07 13:09:05;;;;;;;;;;;21.10;60.00;;;;;;5034603;28;1300;-69
2021/10/07 13:11:33;;;;;;;;;;;21.10;60.00;;;;;;5034086;28;1295;-70
2021/10/07 13:13:59;;;;;;;;;;;21.10;60.00;;;;;;5049826;28;1395;-70
2021/10/07 13:16:30;;;;;;;;;;;21.10;60.00;;;;;;5049087;28;1174;-70
2021/10/07 13:18:56;;;;;;;;;;;21.10;60.10;;;;;;5049565;28;1882;-70
2021/10/07 13:21:21;;;;;;;;;;;21.10;59.80;;;;;;5033801;28;1293;-69
2021/10/07 13:23:47;;;;;;;;;;;21.10;59.50;;;;;;5033080;28;1403;-70
2021/10/07 13:26:12;;;;;;;;;;;21.10;59.50;;;;;;5033989;28;1340;-70
2021/10/07 13:28:38;;;;;;;;;;;21.10;59.50;;;;;;5037700;28;1169;-70
2021/10/07 13:31:04;;;;;;;;;;;21.10;59.50;;;;;;5051534;28;1398;-70
2021/10/07 13:33:29;;;;;;;;;;;21.10;59.50;;;;;;5053839;28;1387;-71
2021/10/07 13:35:55;;;;;;;;;;;21.10;59.20;;;;;;5049867;28;1298;-70
2021/10/07 13:38:22;;;;;;;;;;;21.10;59.00;;;;;;5034061;28;1263;-68
2021/10/07 13:40:48;;;;;;;;;;;21.10;59.00;;;;;;5035811;28;1902;-70
2021/10/07 13:43:13;;;;;;;;;;;21.10;58.70;;;;;;5023245;28;1246;-70
2021/10/07 13:45:39;;;;;;;;;;;21.10;58.70;;;;;;5024122;28;1131;-70
2021/10/07 13:48:04;;;;;;;;;;;21.00;58.70;;;;;;5037409;28;1223;-70
2021/10/07 13:50:30;;;;;;;;;;;21.00;58.60;;;;;;5053156;28;1307;-70
2021/10/07 13:52:56;;;;;;;;;;;21.00;58.90;;;;;;5052446;28;1329;-70
2021/10/07 13:55:22;;;;;;;;;;;21.00;58.80;;;;;;5053167;28;1359;-70
2021/10/07 13:57:50;;;;;;;;;;;21.00;58.70;;;;;;5053463;28;1415;-70
2021/10/07 14:00:15;;;;;;;;;;;21.00;58.80;;;;;;5053273;28;1917;-69
2021/10/07 14:02:41;;;;;;;;;;;21.00;58.80;;;;;;5052010;28;1303;-71
2021/10/07 14:05:06;;;;;;;;;;;21.00;58.70;;;;;;5053206;28;1178;-71
2021/10/07 14:07:32;;;;;;;;;;;21.00;58.60;;;;;;5053520;28;1330;-71
2021/10/07 14:09:57;;;;;;;;;;;21.00;58.50;;;;;;5052480;28;1462;-69
2021/10/07 14:12:23;;;;;;;;;;;21.00;58.40;;;;;;5035273;28;1348;-70
2021/10/07 14:14:48;;;;;;;;;;;21.00;58.40;;;;;;5053562;28;1464;-71
2021/10/07 14:17:13;;;;;;;;;;;21.00;58.40;;;;;;5052852;28;1282;-70
2021/10/07 14:19:39;;;;;;;;;;;21.00;58.30;;;;;;5053164;28;1961;-70
2021/10/07 14:22:04;;;;;;;;;;;21.00;58.10;;;;;;5053003;28;1318;-70
2021/10/07 14:24:30;;;;;;;;;;;21.00;57.70;;;;;;5052977;28;1372;-69
2021/10/07 14:26:55;;;;;;;;;;;21.00;58.10;;;;;;5050562;28;1279;-70
2021/10/07 14:29:21;;;;;;;;;;;21.00;58.70;;;;;;5033531;28;1265;-70
2021/10/07 14:31:47;;;;;;;;;;;21.00;57.80;;;;;;5048399;28;1373;-70